createdAt,value
2019-03-24T00:00:02.578Z,28.38
2019-03-24T00:02:31.342Z,26.35
2019-03-24T00:04:59.910Z,29.52
2019-03-24T00:07:28.515Z,25.60
2019-03-24T00:09:57.323Z,24.80
2019-03-24T00:12:25.974Z,25.52
2019-03-24T00:14:54.585Z,25.43
2019-03-24T00:17:23.380Z,25.65
2019-03-24T00:19:52.005Z,27.02
2019-03-24T00:22:20.784Z,27.45
2019-03-24T00:24:49.438Z,27.48
2019-03-24T00:27:18.090Z,26.45
2019-03-24T00:29:46.679Z,19.70
2019-03-24T00:32:15.497Z,26.30
2019-03-24T00:34:44.076Z,25.55
2019-03-24T00:37:12.677Z,22.87
2019-03-24T00:39:41.245Z,23.38
2019-03-24T00:42:09.883Z,22.42
2019-03-24T00:44:38.518Z,24.98
2019-03-24T00:47:07.199Z,20.55
2019-03-24T00:49:35.868Z,26.60
2019-03-24T00:52:04.746Z,19.95
2019-03-24T00:54:33.371Z,23.20
2019-03-24T00:57:02.101Z,23.40
2019-03-24T00:59:30.829Z,22.17
2019-03-24T01:01:59.498Z,16.00
2019-03-24T01:04:28.073Z,22.73
2019-03-24T01:06:56.840Z,22.07
2019-03-24T01:09:25.446Z,24.95
2019-03-24T01:11:54.088Z,24.82
2019-03-24T01:14:22.718Z,15.60
2019-03-24T01:16:51.413Z,18.00
2019-03-24T01:19:20.169Z,12.13
2019-03-24T01:21:48.864Z,13.78
2019-03-24T01:24:17.449Z,12.15
2019-03-24T01:26:46.127Z,17.77
2019-03-24T01:29:14.849Z,18.37
2019-03-24T01:31:43.485Z,21.48
2019-03-24T01:34:12.133Z,19.55
2019-03-24T01:36:40.800Z,17.07
2019-03-24T01:39:09.482Z,12.65
2019-03-24T01:41:38.107Z,12.78
2019-03-24T01:44:06.932Z,10.32
2019-03-24T01:46:35.643Z,11.88
2019-03-24T01:49:04.383Z,13.40
2019-03-24T01:51:32.987Z,15.65
2019-03-24T01:54:01.613Z,14.20
2019-03-24T01:56:30.240Z,13.10
2019-03-24T01:58:59.072Z,18.77
2019-03-24T02:01:27.629Z,11.55
2019-03-24T02:03:56.290Z,15.48
2019-03-24T02:06:25.030Z,11.75
2019-03-24T02:08:53.597Z,18.75
2019-03-24T02:11:22.300Z,17.00
2019-03-24T02:13:51.130Z,12.15
2019-03-24T02:16:19.877Z,16.37
2019-03-24T02:18:48.440Z,14.98
2019-03-24T02:21:17.034Z,9.55
2019-03-24T02:23:45.691Z,20.90
2019-03-24T02:26:14.282Z,14.78
2019-03-24T02:28:42.899Z,7.03
2019-03-24T02:31:11.632Z,10.13
2019-03-24T02:33:40.202Z,18.30
2019-03-24T02:36:08.795Z,14.38
2019-03-24T02:38:37.547Z,13.50
2019-03-24T02:41:06.116Z,9.88
2019-03-24T02:43:34.693Z,13.43
2019-03-24T02:46:03.491Z,8.78
2019-03-24T02:48:32.072Z,12.75
2019-03-24T02:51:00.770Z,11.43
2019-03-24T02:53:29.369Z,16.05
2019-03-24T02:55:58.144Z,13.60
2019-03-24T02:58:27.116Z,12.93
2019-03-24T03:00:55.713Z,15.23
2019-03-24T03:03:24.385Z,11.63
2019-03-24T03:05:53.073Z,11.45
2019-03-24T03:08:21.669Z,15.43
2019-03-24T03:10:50.228Z,12.30
2019-03-24T03:13:18.810Z,17.12
2019-03-24T03:15:47.369Z,13.22
2019-03-24T03:18:16.042Z,14.80
2019-03-24T03:20:44.689Z,18.60
2019-03-24T03:23:13.242Z,20.90
2019-03-24T03:25:41.848Z,19.62
2019-03-24T03:28:10.439Z,17.37
2019-03-24T03:30:39.053Z,16.57
2019-03-24T03:33:07.712Z,20.05
2019-03-24T03:35:39.258Z,14.83
2019-03-24T03:38:07.830Z,15.28
2019-03-24T03:40:36.743Z,18.75
2019-03-24T03:43:05.437Z,18.20
2019-03-24T03:45:34.141Z,11.43
2019-03-24T03:48:02.714Z,16.35
2019-03-24T03:50:31.375Z,13.70
2019-03-24T03:52:59.996Z,15.63
2019-03-24T03:55:28.599Z,16.65
2019-03-24T03:57:57.317Z,18.85
2019-03-24T04:00:34.265Z,16.15
2019-03-24T04:03:03.391Z,21.82
2019-03-24T04:05:32.052Z,16.87
2019-03-24T04:08:01.441Z,10.00
2019-03-24T04:10:30.109Z,14.78
2019-03-24T04:12:58.897Z,14.55
2019-03-24T04:15:27.488Z,16.25
2019-03-24T04:17:56.186Z,16.25
2019-03-24T04:20:24.770Z,16.12
2019-03-24T04:22:53.357Z,18.77
2019-03-24T04:25:21.974Z,19.60
2019-03-24T04:27:50.579Z,22.22
2019-03-24T04:30:19.215Z,18.57
2019-03-24T04:32:47.785Z,14.40
2019-03-24T04:35:16.356Z,18.35
2019-03-24T04:37:44.985Z,17.62
2019-03-24T04:40:13.719Z,14.60
2019-03-24T04:42:42.309Z,20.95
2019-03-24T04:45:11.226Z,20.92
2019-03-24T04:47:39.857Z,20.55
2019-03-24T04:50:09.196Z,23.45
2019-03-24T04:52:37.911Z,21.35
2019-03-24T04:55:09.576Z,24.57
2019-03-24T04:57:38.443Z,12.88
2019-03-24T05:00:08.209Z,20.10
2019-03-24T05:02:37.002Z,13.60
2019-03-24T05:05:07.124Z,24.45
2019-03-24T05:07:36.058Z,20.32
2019-03-24T05:10:06.570Z,15.90
2019-03-24T05:12:35.285Z,24.12
2019-03-24T05:15:04.329Z,20.17
2019-03-24T05:17:32.989Z,9.68
2019-03-24T05:20:01.585Z,19.42
2019-03-24T05:22:30.178Z,16.42
2019-03-24T05:24:58.825Z,19.95
2019-03-24T05:27:27.436Z,17.23
2019-03-24T05:29:56.107Z,15.32
2019-03-24T05:32:24.762Z,21.23
2019-03-24T05:34:53.442Z,21.30
2019-03-24T05:37:22.136Z,19.52
2019-03-24T05:39:50.726Z,15.85
2019-03-24T05:42:19.313Z,17.98
2019-03-24T05:44:47.930Z,17.50
2019-03-24T05:47:16.494Z,14.35
2019-03-24T05:49:45.097Z,14.75
2019-03-24T05:52:13.771Z,22.15
2019-03-24T05:54:42.477Z,21.52
2019-03-24T05:57:11.084Z,16.93
2019-03-24T05:59:39.813Z,16.27
2019-03-24T06:02:08.452Z,18.80
2019-03-24T06:04:37.079Z,14.38
2019-03-24T06:07:05.838Z,24.20
2019-03-24T06:09:34.405Z,17.73
2019-03-24T06:12:03.096Z,15.75
2019-03-24T06:14:31.674Z,20.27
2019-03-24T06:17:00.289Z,22.17
2019-03-24T06:19:28.897Z,20.50
2019-03-24T06:21:57.484Z,29.57
2019-03-24T06:24:26.185Z,17.92
2019-03-24T06:26:54.887Z,13.13
2019-03-24T06:29:23.499Z,15.75
2019-03-24T06:31:52.178Z,21.87
2019-03-24T06:34:20.843Z,19.10
2019-03-24T06:36:49.472Z,18.23
2019-03-24T06:39:18.170Z,19.82
2019-03-24T06:41:46.818Z,18.98
2019-03-24T06:44:15.494Z,17.07
2019-03-24T06:46:44.292Z,23.70
2019-03-24T06:49:12.978Z,20.23
2019-03-24T06:51:41.565Z,25.35
2019-03-24T06:54:10.214Z,24.20
2019-03-24T06:56:38.818Z,24.90
2019-03-24T06:59:07.523Z,19.23
2019-03-24T07:01:36.246Z,16.27
2019-03-24T07:04:04.990Z,11.50
2019-03-24T07:06:34.761Z,15.98
2019-03-24T07:09:05.336Z,18.65
2019-03-24T07:11:33.996Z,21.52
2019-03-24T07:14:02.704Z,20.55
2019-03-24T07:16:31.281Z,22.73
2019-03-24T07:18:59.934Z,18.40
2019-03-24T07:21:28.556Z,17.42
2019-03-24T07:23:57.152Z,15.05
2019-03-24T07:26:25.723Z,22.70
2019-03-24T07:28:54.352Z,18.70
2019-03-24T07:31:23.134Z,17.73
2019-03-24T07:33:51.752Z,18.48
2019-03-24T07:36:20.426Z,13.15
2019-03-24T07:38:49.036Z,15.35
2019-03-24T07:41:17.643Z,18.77
2019-03-24T07:43:49.290Z,13.65
2019-03-24T07:46:18.260Z,16.48
2019-03-24T07:48:46.874Z,10.75
2019-03-24T07:51:15.553Z,18.48
2019-03-24T07:53:44.148Z,12.47
2019-03-24T07:56:12.747Z,10.65
2019-03-24T07:58:41.443Z,13.28
2019-03-24T08:01:10.150Z,14.35
2019-03-24T08:03:38.919Z,10.63
2019-03-24T08:06:07.685Z,15.55
2019-03-24T08:08:43.963Z,21.00
2019-03-24T08:11:06.734Z,12.07
2019-03-24T08:13:35.353Z,12.33
2019-03-24T08:16:04.014Z,14.03
2019-03-24T08:18:32.579Z,13.38
2019-03-24T08:21:01.153Z,12.35
2019-03-24T08:23:29.774Z,12.95
2019-03-24T08:25:58.425Z,14.15
2019-03-24T08:28:26.973Z,10.82
2019-03-24T08:30:55.611Z,8.83
2019-03-24T08:33:24.160Z,7.58
2019-03-24T08:35:52.896Z,9.00
2019-03-24T08:38:21.596Z,13.18
2019-03-24T08:40:50.219Z,12.47
2019-03-24T08:43:19.047Z,18.37
2019-03-24T08:45:47.715Z,9.93
2019-03-24T08:48:16.347Z,8.60
2019-03-24T08:50:45.057Z,10.43
2019-03-24T08:53:13.647Z,9.55
2019-03-24T08:55:42.239Z,13.40
2019-03-24T08:58:10.893Z,11.60
2019-03-24T09:00:39.646Z,13.65
2019-03-24T09:03:08.295Z,12.33
2019-03-24T09:05:37.046Z,14.20
2019-03-24T09:08:05.872Z,7.65
2019-03-24T09:10:34.471Z,12.55
2019-03-24T09:13:03.065Z,8.10
2019-03-24T09:15:31.686Z,11.10
2019-03-24T09:18:00.256Z,12.03
2019-03-24T09:20:28.974Z,10.48
2019-03-24T09:22:57.533Z,16.95
2019-03-24T09:25:27.133Z,14.65
2019-03-24T09:27:55.891Z,11.18
2019-03-24T09:30:29.085Z,10.78
2019-03-24T09:32:57.814Z,9.50
2019-03-24T09:35:26.518Z,17.35
2019-03-24T09:37:55.173Z,8.25
2019-03-24T09:40:29.115Z,8.85
2019-03-24T09:42:59.612Z,7.55
2019-03-24T09:45:29.352Z,8.13
2019-03-24T09:47:58.018Z,10.48
2019-03-24T09:50:26.768Z,10.93
2019-03-24T09:52:55.390Z,7.65
2019-03-24T09:55:23.955Z,12.53
2019-03-24T09:57:52.584Z,7.97
2019-03-24T10:00:21.282Z,12.40
2019-03-24T10:02:49.845Z,7.22
2019-03-24T10:05:18.504Z,19.45
2019-03-24T10:07:47.331Z,9.60
2019-03-24T10:10:16.178Z,15.85
2019-03-24T10:12:44.802Z,23.27
2019-03-24T10:15:13.700Z,13.58
2019-03-24T10:17:42.584Z,15.30
2019-03-24T10:20:11.544Z,12.30
2019-03-24T10:22:40.267Z,11.68
2019-03-24T10:25:09.099Z,11.10
2019-03-24T10:27:37.719Z,12.78
2019-03-24T10:30:08.174Z,22.55
2019-03-24T10:32:36.806Z,16.93
2019-03-24T10:35:06.944Z,10.43
2019-03-24T10:37:35.554Z,12.23
2019-03-24T10:40:05.458Z,12.47
2019-03-24T10:42:34.067Z,13.80
2019-03-24T10:45:02.892Z,8.95
2019-03-24T10:47:31.474Z,8.20
2019-03-24T10:50:00.301Z,4.55
2019-03-24T10:52:29.326Z,10.30
2019-03-24T10:54:57.930Z,8.43
2019-03-24T10:57:26.519Z,9.45
2019-03-24T10:59:55.134Z,8.40
2019-03-24T11:02:23.877Z,10.95
2019-03-24T11:04:52.501Z,10.20
2019-03-24T11:07:21.080Z,10.90
2019-03-24T11:09:49.743Z,8.05
2019-03-24T11:12:18.362Z,6.17
2019-03-24T11:14:46.945Z,6.17
2019-03-24T11:17:15.592Z,7.47
2019-03-24T11:19:44.296Z,11.28
2019-03-24T11:22:12.925Z,6.10
2019-03-24T11:24:41.497Z,3.27
2019-03-24T11:27:10.231Z,4.33
2019-03-24T11:29:38.962Z,9.30
2019-03-24T11:32:07.582Z,6.70
2019-03-24T11:34:36.247Z,8.08
2019-03-24T11:37:04.945Z,4.15
2019-03-24T11:39:33.517Z,5.12
2019-03-24T11:42:02.175Z,8.90
2019-03-24T11:44:30.913Z,6.67
2019-03-24T11:46:59.499Z,10.10
2019-03-24T11:49:28.129Z,7.67
2019-03-24T11:51:56.717Z,8.50
2019-03-24T11:54:25.357Z,4.55
2019-03-24T11:56:53.953Z,7.00
2019-03-24T11:59:22.621Z,8.65
2019-03-24T12:01:51.304Z,5.50
2019-03-24T12:04:19.919Z,11.83
2019-03-24T12:06:48.467Z,6.40
2019-03-24T12:09:17.089Z,8.20
2019-03-24T12:11:45.683Z,6.10
2019-03-24T12:14:14.324Z,6.05
2019-03-24T12:16:42.958Z,6.47
2019-03-24T12:19:11.555Z,18.23
2019-03-24T12:21:40.118Z,6.47
2019-03-24T12:24:08.766Z,6.33
2019-03-24T12:26:37.305Z,9.05
2019-03-24T12:29:05.911Z,5.65
2019-03-24T12:31:34.639Z,9.80
2019-03-24T12:34:03.319Z,4.25
2019-03-24T12:36:31.902Z,9.68
2019-03-24T12:39:00.470Z,4.12
2019-03-24T12:41:29.068Z,11.08
2019-03-24T12:43:57.752Z,8.35
2019-03-24T12:46:26.414Z,8.95
2019-03-24T12:48:55.003Z,5.67
2019-03-24T12:51:23.696Z,7.25
2019-03-24T12:53:52.285Z,9.50
2019-03-24T12:56:20.955Z,6.30
2019-03-24T12:58:49.599Z,6.15
2019-03-24T13:01:18.288Z,5.33
2019-03-24T13:03:46.925Z,5.95
2019-03-24T13:06:15.458Z,10.25
2019-03-24T13:08:44.087Z,7.03
2019-03-24T13:11:12.684Z,9.63
2019-03-24T13:13:41.272Z,6.72
2019-03-24T13:16:09.930Z,6.70
2019-03-24T13:18:38.421Z,5.75
2019-03-24T13:21:06.999Z,7.50
2019-03-24T13:23:35.603Z,5.67
2019-03-24T13:26:04.342Z,7.03
2019-03-24T13:28:32.905Z,6.00
2019-03-24T13:31:01.524Z,8.95
2019-03-24T13:33:30.088Z,7.75
2019-03-24T13:36:03.367Z,6.90
2019-03-24T13:38:32.317Z,33.23
2019-03-24T13:41:00.954Z,9.95
2019-03-24T13:43:29.630Z,6.40
2019-03-24T13:45:58.311Z,11.15
2019-03-24T13:48:26.931Z,14.47
2019-03-24T13:50:55.650Z,10.15
2019-03-24T13:53:24.208Z,10.20
2019-03-24T13:55:52.847Z,12.18
2019-03-24T13:58:21.471Z,6.97
2019-03-24T14:00:51.610Z,6.60
2019-03-24T14:03:20.199Z,6.67
2019-03-24T14:05:48.895Z,8.10
2019-03-24T14:08:17.479Z,5.22
2019-03-24T14:10:46.069Z,8.08
2019-03-24T14:13:14.689Z,8.00
2019-03-24T14:15:43.277Z,16.02
2019-03-24T14:18:11.921Z,11.18
2019-03-24T14:20:43.572Z,8.88
2019-03-24T14:23:10.906Z,9.58
2019-03-24T14:25:39.500Z,6.95
2019-03-24T14:28:08.102Z,6.60
2019-03-24T14:30:44.352Z,12.13
2019-03-24T14:33:13.201Z,10.88
2019-03-24T14:35:42.144Z,7.08
2019-03-24T14:38:10.826Z,16.90
2019-03-24T14:40:39.745Z,4.80
2019-03-24T14:43:08.530Z,23.47
2019-03-24T14:45:37.129Z,3.92
2019-03-24T14:48:05.771Z,7.53
2019-03-24T14:50:34.357Z,9.53
2019-03-24T14:53:02.931Z,7.75
2019-03-24T14:55:31.562Z,9.28
2019-03-24T14:58:00.226Z,6.20
2019-03-24T15:00:34.473Z,5.87
2019-03-24T15:03:03.209Z,7.08
2019-03-24T15:05:31.942Z,6.75
2019-03-24T15:08:02.145Z,5.22
2019-03-24T15:10:30.748Z,11.03
2019-03-24T15:12:59.644Z,10.70
2019-03-24T15:15:28.814Z,8.10
2019-03-24T15:17:57.474Z,11.25
2019-03-24T15:20:26.138Z,8.75
2019-03-24T15:22:54.808Z,7.17
2019-03-24T15:25:23.569Z,18.60
2019-03-24T15:27:52.228Z,7.35
2019-03-24T15:30:21.049Z,8.15
2019-03-24T15:32:49.797Z,18.30
2019-03-24T15:35:18.459Z,12.68
2019-03-24T15:37:47.062Z,18.20
2019-03-24T15:40:15.697Z,12.93
2019-03-24T15:42:44.407Z,11.45
2019-03-24T15:45:13.273Z,7.03
2019-03-24T15:47:41.934Z,12.03
2019-03-24T15:50:10.978Z,11.55
2019-03-24T15:52:39.693Z,9.45
2019-03-24T15:55:09.394Z,6.58
2019-03-24T15:57:38.064Z,10.88
2019-03-24T16:00:08.070Z,19.27
2019-03-24T16:02:36.775Z,17.05
2019-03-24T16:05:06.630Z,22.02
2019-03-24T16:07:35.723Z,14.80
2019-03-24T16:10:06.674Z,13.38
2019-03-24T16:12:35.316Z,18.37
2019-03-24T16:15:08.167Z,11.75
2019-03-24T16:20:06.469Z,14.58
2019-03-24T16:22:35.075Z,17.55
2019-03-24T16:25:04.546Z,19.73
2019-03-24T16:27:35.021Z,16.05
2019-03-24T16:30:04.847Z,20.40
2019-03-24T16:32:33.436Z,23.05
2019-03-24T16:35:02.114Z,25.75
2019-03-24T16:37:30.674Z,33.48
2019-03-24T16:39:59.286Z,27.95
2019-03-24T16:42:27.894Z,36.17
2019-03-24T16:44:56.480Z,40.80
2019-03-24T16:47:25.172Z,45.70
2019-03-24T16:49:53.835Z,35.60
2019-03-24T16:52:22.530Z,37.83
2019-03-24T16:54:51.263Z,36.03
2019-03-24T16:57:19.861Z,34.15
2019-03-24T16:59:48.456Z,38.90
2019-03-24T17:02:17.110Z,37.10
2019-03-24T17:04:45.840Z,65.72
2019-03-24T17:07:14.450Z,30.40
2019-03-24T17:09:45.055Z,25.32
2019-03-24T17:12:13.555Z,18.75
2019-03-24T17:14:51.043Z,23.95
2019-03-24T17:17:19.747Z,22.32
2019-03-24T17:19:48.403Z,16.87
2019-03-24T17:22:17.027Z,24.92
2019-03-24T17:24:45.706Z,17.62
2019-03-24T17:27:14.462Z,29.82
2019-03-24T17:29:43.087Z,28.57
2019-03-24T17:32:11.678Z,15.72
2019-03-24T17:34:40.311Z,13.75
2019-03-24T17:37:08.916Z,15.98
2019-03-24T17:39:37.514Z,22.17
2019-03-24T17:42:06.311Z,17.00
2019-03-24T17:44:34.881Z,18.52
2019-03-24T17:47:03.507Z,14.65
2019-03-24T17:49:32.106Z,18.45
2019-03-24T17:52:01.210Z,17.32
2019-03-24T17:54:29.910Z,21.77
2019-03-24T17:56:59.041Z,16.00
2019-03-24T17:59:28.002Z,20.35
2019-03-24T18:01:56.672Z,28.62
2019-03-24T18:04:25.974Z,20.05
2019-03-24T18:06:54.810Z,16.85
2019-03-24T18:09:23.662Z,21.07
2019-03-24T18:11:52.254Z,28.10
2019-03-24T18:14:20.941Z,27.37
2019-03-24T18:16:49.547Z,33.63
2019-03-24T18:19:18.249Z,37.40
2019-03-24T18:21:46.910Z,31.35
2019-03-24T18:24:15.521Z,29.55
2019-03-24T18:26:44.195Z,25.57
2019-03-24T18:29:12.754Z,19.32
2019-03-24T18:31:41.484Z,26.95
2019-03-24T18:34:10.197Z,21.27
2019-03-24T18:36:38.933Z,22.65
2019-03-24T18:39:08.696Z,27.62
2019-03-24T18:41:37.379Z,25.00
2019-03-24T18:44:06.175Z,25.43
2019-03-24T18:46:34.813Z,32.53
2019-03-24T18:49:03.402Z,31.05
2019-03-24T18:51:32.052Z,31.33
2019-03-24T18:54:00.847Z,52.93
2019-03-24T18:56:29.720Z,60.60
2019-03-24T18:58:58.286Z,65.40
2019-03-24T19:01:26.889Z,62.40
2019-03-24T19:03:56.000Z,102.35
2019-03-24T19:06:24.715Z,77.35
2019-03-24T19:08:53.283Z,54.18
2019-03-24T19:11:21.880Z,54.55
2019-03-24T19:13:51.673Z,58.75
2019-03-24T19:16:20.479Z,52.33
2019-03-24T19:18:49.078Z,72.15
2019-03-24T19:21:17.682Z,69.05
2019-03-24T19:23:46.332Z,69.27
2019-03-24T19:26:14.946Z,64.55
2019-03-24T19:28:43.538Z,49.08
2019-03-24T19:31:12.249Z,76.82
2019-03-24T19:33:41.493Z,56.05
2019-03-24T19:36:10.371Z,48.35
2019-03-24T19:38:40.982Z,46.50
2019-03-24T19:41:09.650Z,35.43
2019-03-24T19:43:39.853Z,40.50
2019-03-24T19:46:08.484Z,43.70
2019-03-24T19:48:37.240Z,50.83
2019-03-24T19:51:07.169Z,50.12
2019-03-24T19:53:36.074Z,41.00
2019-03-24T19:56:04.875Z,36.48
2019-03-24T19:58:33.505Z,40.70
2019-03-24T20:01:02.360Z,38.63
2019-03-24T20:03:31.851Z,28.42
2019-03-24T20:06:00.480Z,31.95
2019-03-24T20:08:29.087Z,35.35
2019-03-24T20:10:57.687Z,42.33
2019-03-24T20:13:26.290Z,30.50
2019-03-24T20:15:54.878Z,32.42
2019-03-24T20:18:23.654Z,30.10
2019-03-24T20:20:52.351Z,26.82
2019-03-24T20:23:21.123Z,29.95
2019-03-24T20:25:49.698Z,32.73
2019-03-24T20:28:18.301Z,32.13
2019-03-24T20:30:47.085Z,24.57
2019-03-24T20:33:15.629Z,25.02
2019-03-24T20:35:44.281Z,24.57
2019-03-24T20:38:12.896Z,22.30
2019-03-24T20:40:41.732Z,28.75
2019-03-24T20:43:10.411Z,27.75
2019-03-24T20:45:39.083Z,22.82
2019-03-24T20:48:07.713Z,22.70
2019-03-24T20:50:36.450Z,27.30
2019-03-24T20:53:17.337Z,29.32
2019-03-24T20:55:35.338Z,25.12
2019-03-24T20:58:04.004Z,23.15
2019-03-24T21:00:34.034Z,19.32
2019-03-24T21:03:03.301Z,16.55
2019-03-24T21:05:31.874Z,19.60
2019-03-24T21:08:00.516Z,22.00
2019-03-24T21:10:29.106Z,17.70
2019-03-24T21:12:57.742Z,15.63
2019-03-24T21:15:26.455Z,17.27
2019-03-24T21:17:55.021Z,11.97
2019-03-24T21:20:23.649Z,18.62
2019-03-24T21:22:52.285Z,22.45
2019-03-24T21:25:21.151Z,24.05
2019-03-24T21:27:49.802Z,16.87
2019-03-24T21:30:21.488Z,28.20
2019-03-24T21:32:51.589Z,18.90
2019-03-24T21:35:20.370Z,25.92
2019-03-24T21:37:48.970Z,18.25
2019-03-24T21:40:17.598Z,18.07
2019-03-24T21:42:46.158Z,26.95
2019-03-24T21:45:16.386Z,20.65
2019-03-24T21:47:45.051Z,22.20
2019-03-24T21:50:13.758Z,25.60
2019-03-24T21:52:42.330Z,34.70
2019-03-24T21:55:11.198Z,32.93
2019-03-24T21:57:39.766Z,36.48
2019-03-24T22:00:09.412Z,52.78
2019-03-24T22:02:38.049Z,55.60
2019-03-24T22:05:07.371Z,43.68
2019-03-24T22:07:36.093Z,32.78
2019-03-24T22:10:06.535Z,24.85
2019-03-24T22:12:35.170Z,23.57
2019-03-24T22:15:05.614Z,28.00
2019-03-24T22:17:34.165Z,23.32
2019-03-24T22:20:03.104Z,34.45
2019-03-24T22:22:31.720Z,33.25
2019-03-24T22:25:00.353Z,34.20
2019-03-24T22:27:28.925Z,35.38
2019-03-24T22:29:57.633Z,41.85
2019-03-24T22:32:26.291Z,39.67
2019-03-24T22:34:54.887Z,34.58
2019-03-24T22:37:23.589Z,46.30
2019-03-24T22:39:52.285Z,38.23
2019-03-24T22:42:20.884Z,38.30
2019-03-24T22:44:49.521Z,42.45
2019-03-24T22:47:18.139Z,33.53
2019-03-24T22:49:46.738Z,46.35
2019-03-24T22:52:15.339Z,31.33
2019-03-24T22:54:43.954Z,23.35
2019-03-24T22:57:12.540Z,27.62
2019-03-24T22:59:41.216Z,29.72
2019-03-24T23:02:10.031Z,32.00
2019-03-24T23:04:38.717Z,30.32
2019-03-24T23:07:07.369Z,31.35
2019-03-24T23:09:36.110Z,25.15
2019-03-24T23:12:04.843Z,35.00
2019-03-24T23:14:33.569Z,36.17
2019-03-24T23:17:02.141Z,25.75
2019-03-24T23:19:30.745Z,32.75
2019-03-24T23:21:59.333Z,43.48
2019-03-24T23:24:27.970Z,42.95
2019-03-24T23:26:56.634Z,39.67
2019-03-24T23:29:25.302Z,31.12
2019-03-24T23:31:53.909Z,30.80
2019-03-24T23:34:22.566Z,38.67
2019-03-24T23:36:51.145Z,35.10
2019-03-24T23:39:19.828Z,23.62
2019-03-24T23:41:48.450Z,28.80
2019-03-24T23:44:17.206Z,26.85
2019-03-24T23:46:45.862Z,29.70
2019-03-24T23:49:14.436Z,25.88
2019-03-24T23:51:43.035Z,21.17
2019-03-24T23:54:11.634Z,26.75
2019-03-24T23:56:40.206Z,20.68
2019-03-24T23:59:08.846Z,27.77
